Time;durP1;ratioP1;P1;durP2;ratioP2;P2;SDS_P1;SDS_P2;PMS_P1;PMS_P2;Temp;Humidity;BMP_temperature;BMP_pressure;BME280_temperature;BME280_humidity;BME280_pressure;Samples;Min_cycle;Max_cycle;Signal;HPM_P1;HPM_P2
2022/12/28 00:04:54;;;;;;;4.35;1.40;;;;;;;3.98;67.78;100685.75;10468432;28;20052;-79
2022/12/28 00:09:57;;;;;;;4.88;1.92;;;;;;;3.90;68.18;100664.00;10465724;28;20065;-78
2022/12/28 00:15:00;;;;;;;7.63;1.63;;;;;;;4.16;67.27;100657.38;10477067;28;20473;-78
2022/12/28 00:20:04;;;;;;;1.70;1.20;;;;;;;3.67;68.35;100635.84;10476935;28;20248;-77
2022/12/28 00:25:08;;;;;;;8.48;1.80;;;;;;;4.14;67.40;100637.97;10480023;28;20093;-77
2022/12/28 00:30:12;;;;;;;3.97;1.10;;;;;;;4.05;67.31;100635.78;10486162;28;20447;-78
2022/12/28 00:35:16;;;;;;;4.40;1.02;;;;;;;4.24;67.29;100625.09;10476753;28;20040;-76
2022/12/28 00:40:19;;;;;;;3.40;2.05;;;;;;;3.99;67.84;100605.03;10478392;28;20048;-77
2022/12/28 00:45:25;;;;;;;4.97;1.38;;;;;;;4.31;66.81;100586.59;10481153;28;20419;-77
2022/12/28 00:50:30;;;;;;;8.73;1.80;;;;;;;4.03;67.99;100581.81;10466810;28;20528;-77
2022/12/28 00:55:33;;;;;;;6.65;1.40;;;;;;;4.23;67.50;100565.72;10458260;28;20151;-77
2022/12/28 01:00:37;;;;;;;6.15;2.08;;;;;;;4.15;67.96;100565.25;10464833;28;20562;-78
2022/12/28 01:05:41;;;;;;;7.72;1.90;;;;;;;4.17;68.19;100542.97;10457631;28;20091;-77
2022/12/28 01:10:44;;;;;;;2.67;1.00;;;;;;;4.30;67.72;100539.66;10451751;28;20124;-77
2022/12/28 01:15:46;;;;;;;4.72;1.00;;;;;;;4.21;68.00;100540.16;10486188;28;20040;-77
2022/12/28 01:20:51;;;;;;;4.22;0.95;;;;;;;4.44;67.23;100541.59;10476699;28;20045;-78
2022/12/28 01:25:53;;;;;;;5.35;1.02;;;;;;;4.31;67.51;100538.72;10472833;28;20059;-78
2022/12/28 01:31:03;;;;;;;6.25;1.55;;;;;;;4.43;67.65;100531.91;10470313;28;20041;-77
2022/12/28 01:36:10;;;;;;;4.88;1.25;;;;;;;4.30;67.80;100524.56;10483095;28;20037;-77
2022/12/28 01:41:15;;;;;;;6.97;2.20;;;;;;;4.37;68.02;100512.66;10498377;28;20044;-76
2022/12/28 01:46:21;;;;;;;3.20;1.30;;;;;;;4.38;67.80;100508.19;10496309;28;20052;-77
2022/12/28 01:51:29;;;;;;;9.27;1.40;;;;;;;4.82;66.27;100512.91;10511455;28;20080;-77
2022/12/28 01:56:32;;;;;;;2.20;0.75;;;;;;;4.73;67.14;100497.47;10478881;28;20044;-78
2022/12/28 02:01:35;;;;;;;6.95;1.35;;;;;;;4.46;69.41;100495.34;10475723;28;20045;-77
2022/12/28 02:06:40;;;;;;;5.32;1.65;;;;;;;4.26;72.06;100479.59;10498519;28;20049;-78
2022/12/28 02:11:44;;;;;;;7.22;1.77;;;;;;;4.28;72.56;100478.59;10468669;28;20045;-78
2022/12/28 02:16:47;;;;;;;11.90;2.63;;;;;;;4.26;74.12;100488.44;10513013;28;20040;-78
2022/12/28 02:22:08;;;;;;;4.38;1.42;;;;;;;4.29;74.71;100469.66;10515286;28;20131;-78
2022/12/28 02:27:22;;;;;;;5.43;1.95;;;;;;;4.05;76.17;100453.19;10474470;28;20045;-79
2022/12/28 02:32:46;;;;;;;4.28;1.33;;;;;;;4.24;75.90;100436.28;10484019;28;20128;-78
2022/12/28 02:37:54;;;;;;;4.15;1.33;;;;;;;4.04;76.61;100427.56;10465097;28;20144;-78
2022/12/28 02:42:58;;;;;;;3.80;1.50;;;;;;;4.40;75.78;100415.88;10471420;28;20052;-78
2022/12/28 02:53:41;;;;;;;5.60;1.80;;;;;;;4.48;75.73;100378.22;10454741;28;20041;-78
2022/12/28 02:59:10;;;;;;;8.07;1.70;;;;;;;4.09;77.33;100383.00;10469746;28;20041;-76
2022/12/28 03:04:24;;;;;;;11.15;3.60;;;;;;;4.13;78.62;100363.25;10469763;28;20072;-77
2022/12/28 03:09:34;;;;;;;16.27;5.93;;;;;;;4.13;78.43;100354.44;10455786;28;20459;-77
2022/12/28 03:14:42;;;;;;;24.27;8.57;;;;;;;4.05;79.00;100346.00;10463919;28;20044;-77
2022/12/28 03:36:11;;;;;;;6.78;2.90;;;;;;;4.62;76.38;100278.06;10498259;28;20118;-78
2022/12/28 03:41:28;;;;;;;5.45;1.95;;;;;;;4.81;75.66;100277.84;10504051;28;20094;-78
2022/12/28 03:46:46;;;;;;;4.38;2.08;;;;;;;4.92;74.93;100282.53;10475339;28;20044;-78
2022/12/28 03:51:51;;;;;;;1.98;1.13;;;;;;;4.72;75.00;100261.56;10497751;28;20408;-78
2022/12/28 03:56:55;;;;;;;3.90;1.17;;;;;;;4.82;74.79;100247.59;10494602;28;20051;-77
2022/12/28 04:02:03;;;;;;;4.13;1.10;;;;;;;5.05;73.64;100240.09;10496628;28;20044;-77
2022/12/28 04:07:09;;;;;;;5.22;1.50;;;;;;;5.05;73.28;100222.31;10469530;28;20112;-78
2022/12/28 04:12:13;;;;;;;3.83;1.95;;;;;;;5.15;73.08;100230.59;10472377;28;20117;-77
2022/12/28 04:17:35;;;;;;;4.43;1.30;;;;;;;5.35;72.35;100200.09;10509297;28;20049;-77
2022/12/28 04:22:39;;;;;;;2.78;1.42;;;;;;;5.54;72.27;100209.56;10509057;28;20179;-78
2022/12/28 04:27:43;;;;;;;2.70;0.95;;;;;;;5.25;73.06;100210.44;10480414;28;20072;-77
2022/12/28 04:33:06;;;;;;;3.03;1.20;;;;;;;5.67;73.10;100175.88;10490925;28;20080;-77
2022/12/28 04:38:10;;;;;;;3.60;1.65;;;;;;;5.42;75.39;100157.94;10484870;28;20057;-77
2022/12/28 04:43:13;;;;;;;4.07;1.20;;;;;;;4.86;80.33;100159.63;10510618;28;20037;-76
2022/12/28 04:48:16;;;;;;;4.20;1.33;;;;;;;4.73;81.56;100172.81;10504498;28;20044;-78
2022/12/28 04:53:20;;;;;;;1.25;1.15;;;;;;;4.74;80.10;100174.50;10491696;28;20076;-79
2022/12/28 04:58:23;;;;;;;2.40;0.73;;;;;;;5.01;78.48;100164.88;10461465;28;20711;-77
2022/12/28 05:03:26;;;;;;;1.45;1.35;;;;;;;5.33;77.25;100154.03;10478705;28;20071;-77
2022/12/28 05:08:32;;;;;;;4.70;1.38;;;;;;;5.41;77.82;100157.06;10456979;28;20072;-76
2022/12/28 05:13:35;;;;;;;0.95;0.93;;;;;;;5.27;78.10;100160.59;10475249;28;20485;-78
2022/12/28 05:18:38;;;;;;;5.07;1.88;;;;;;;5.33;78.04;100154.03;10463949;28;20482;-76
2022/12/28 05:23:43;;;;;;;4.15;0.80;;;;;;;5.26;78.07;100128.72;10490388;28;20383;-76
2022/12/28 05:28:46;;;;;;;3.60;1.23;;;;;;;5.21;78.00;100141.47;10470683;28;20127;-77
2022/12/28 05:33:49;;;;;;;1.60;0.77;;;;;;;5.51;77.67;100144.00;10480319;28;20498;-78
2022/12/28 05:38:54;;;;;;;3.53;1.38;;;;;;;5.28;80.29;100127.69;10466967;28;20132;-77
2022/12/28 05:43:59;;;;;;;3.13;1.25;;;;;;;5.22;82.06;100133.41;10470954;28;20072;-78
2022/12/28 05:49:02;;;;;;;3.95;1.58;;;;;;;4.82;84.96;100137.63;10481051;28;20090;-78
2022/12/28 05:54:06;;;;;;;2.60;1.92;;;;;;;5.00;86.35;100125.06;10484200;28;20072;-79
2022/12/28 05:59:10;;;;;;;2.42;1.23;;;;;;;4.80;100.00;100115.56;10474358;28;20048;-78
2022/12/28 06:04:16;;;;;;;6.32;2.03;;;;;;;4.91;100.00;100106.94;10504563;28;20048;-79
2022/12/28 06:09:20;;;;;;;1.70;1.20;;;;;;;4.55;92.42;100101.13;10516480;28;20045;-82
2022/12/28 06:14:23;;;;;;;4.43;2.10;;;;;;;4.84;91.78;100102.00;10491007;28;20056;-77
2022/12/28 06:19:26;;;;;;;3.55;1.67;;;;;;;4.96;90.75;100104.84;10462645;28;20068;-80
2022/12/28 06:24:30;;;;;;;2.75;1.75;;;;;;;4.57;92.43;100099.22;10466971;28;20056;-79
2022/12/28 06:29:33;;;;;;;4.68;2.00;;;;;;;4.80;92.27;100094.28;10470109;28;20112;-78
2022/12/28 06:34:36;;;;;;;3.45;1.67;;;;;;;4.80;92.40;100086.31;10469498;28;20033;-79
2022/12/28 06:39:40;;;;;;;5.45;1.90;;;;;;;4.68;92.25;100082.59;10477480;28;20041;-79
2022/12/28 06:44:43;;;;;;;3.22;1.50;;;;;;;4.88;91.25;100073.38;10458342;28;20099;-79
2022/12/28 06:49:46;;;;;;;3.88;1.92;;;;;;;4.88;91.53;100097.34;10458245;28;20045;-79
2022/12/28 06:54:50;;;;;;;4.93;2.42;;;;;;;5.03;92.00;100071.63;10458605;28;20086;-80
2022/12/28 06:59:53;;;;;;;2.97;2.15;;;;;;;5.26;90.50;100078.97;10471329;28;20057;-79
2022/12/28 07:04:56;;;;;;;3.20;2.00;;;;;;;5.06;90.84;100100.69;10484460;28;20037;-79
2022/12/28 07:10:00;;;;;;;7.45;2.80;;;;;;;5.32;90.57;100074.22;10485938;28;20045;-79
2022/12/28 07:15:03;;;;;;;4.15;1.85;;;;;;;5.34;90.83;100069.66;10479282;28;20056;-78
2022/12/28 07:20:07;;;;;;;6.38;2.60;;;;;;;5.50;89.85;100060.56;10480290;28;20037;-80
2022/12/28 07:25:11;;;;;;;2.92;2.42;;;;;;;5.43;90.37;100074.38;10486390;28;20037;-78
2022/12/28 07:30:15;;;;;;;3.50;1.95;;;;;;;5.39;90.63;100073.75;10479945;28;20080;-78
2022/12/28 07:35:17;;;;;;;5.25;1.90;;;;;;;5.43;90.89;100082.38;10479236;28;20501;-78
2022/12/28 07:40:22;;;;;;;2.10;1.50;;;;;;;5.62;89.91;100076.72;10479578;28;20095;-79
2022/12/28 07:45:24;;;;;;;1.27;1.02;;;;;;;5.67;89.08;100071.94;10486900;28;20441;-77
2022/12/28 07:50:27;;;;;;;2.60;1.40;;;;;;;5.73;89.41;100061.75;10463959;28;20079;-77
2022/12/28 07:55:42;;;;;;;1.23;1.13;;;;;;;5.59;89.75;100071.59;10469312;28;20475;-77
2022/12/28 08:00:45;;;;;;;1.58;1.15;;;;;;;5.49;89.32;100050.88;10466203;28;20037;-77
2022/12/28 08:05:48;;;;;;;2.53;1.48;;;;;;;5.54;89.99;100055.03;10480590;28;20056;-77
2022/12/28 08:10:52;;;;;;;1.98;1.23;;;;;;;5.71;87.53;100060.13;10481176;28;20052;-77
2022/12/28 08:15:55;;;;;;;1.30;1.20;;;;;;;5.83;86.53;100061.13;10478167;28;20040;-77
2022/12/28 08:21:01;;;;;;;1.30;0.93;;;;;;;6.03;85.71;100062.47;10470828;28;20041;-78
2022/12/28 08:26:11;;;;;;;2.55;1.45;;;;;;;6.14;84.79;100082.13;10474166;28;20076;-79
2022/12/28 08:31:16;;;;;;;1.98;1.08;;;;;;;6.44;83.58;100062.31;10486169;28;20083;-78
2022/12/28 08:36:19;;;;;;;2.42;0.88;;;;;;;6.21;84.92;100066.56;10482910;28;20086;-78
2022/12/28 08:41:25;;;;;;;2.35;0.90;;;;;;;6.33;84.10;100060.38;10490250;28;20067;-78
2022/12/28 08:46:31;;;;;;;1.58;1.10;;;;;;;6.46;84.36;100070.22;10498137;28;20162;-78
2022/12/28 08:51:38;;;;;;;0.80;0.80;;;;;;;6.16;85.69;100076.69;10464927;28;20182;-76
2022/12/28 08:56:43;;;;;;;1.02;0.80;;;;;;;5.71;88.49;100068.13;10492716;28;20047;-78
2022/12/28 09:01:47;;;;;;;0.90;0.90;;;;;;;5.97;89.02;100065.53;10470908;28;20465;-77
2022/12/28 09:06:50;;;;;;;0.80;0.77;;;;;;;5.87;89.00;100074.16;10459702;28;20534;-76
2022/12/28 09:11:54;;;;;;;1.40;1.20;;;;;;;6.11;88.23;100087.66;10442070;28;20067;-76
2022/12/28 09:16:57;;;;;;;1.23;1.05;;;;;;;5.97;88.63;100100.19;10459530;28;20068;-77
2022/12/28 09:22:00;;;;;;;1.70;0.90;;;;;;;6.01;87.76;100093.72;10482753;28;20127;-76
2022/12/28 09:27:04;;;;;;;0.80;0.80;;;;;;;6.02;88.90;100088.28;10486588;28;20462;-78
2022/12/28 09:32:07;;;;;;;1.33;1.20;;;;;;;6.35;87.69;100094.97;10476913;28;20104;-77
2022/12/28 09:37:09;;;;;;;1.45;1.30;;;;;;;6.27;87.45;100100.81;10478707;28;20123;-77
2022/12/28 09:42:20;;;;;;;1.27;1.27;;;;;;;6.07;88.69;100085.31;10475819;28;20065;-76
2022/12/28 09:47:34;;;;;;;1.23;1.13;;;;;;;6.16;88.71;100093.53;10452568;28;20067;-77
2022/12/28 09:52:46;;;;;;;1.30;1.20;;;;;;;6.50;88.20;100085.03;10478438;28;20616;-77
2022/12/28 09:57:55;;;;;;;2.28;1.90;;;;;;;6.57;88.19;100075.66;10499385;28;20052;-78
2022/12/28 10:03:02;;;;;;;1.55;1.45;;;;;;;6.34;89.50;100083.44;10522552;28;20048;-79
2022/12/28 10:08:05;;;;;;;1.73;1.63;;;;;;;6.28;89.22;100086.53;10456358;28;20131;-79
2022/12/28 10:13:18;;;;;;;2.38;1.40;;;;;;;6.46;88.49;100062.22;10455002;28;20041;-77
2022/12/28 10:18:40;;;;;;;3.03;1.40;;;;;;;6.48;87.58;100069.16;10479519;28;20068;-78
2022/12/28 10:23:45;;;;;;;3.20;1.95;;;;;;;6.63;87.57;100052.06;10477153;28;20123;-77
2022/12/28 10:29:16;;;;;;;1.67;1.58;;;;;;;6.63;87.90;100035.19;10470146;28;20430;-78
2022/12/28 10:34:21;;;;;;;1.73;1.63;;;;;;;6.47;89.10;100023.88;10479842;28;20131;-77
2022/12/28 10:39:28;;;;;;;3.15;2.22;;;;;;;6.79;88.01;100034.97;10453528;28;20433;-78
2022/12/28 10:44:35;;;;;;;3.67;1.80;;;;;;;6.79;88.04;100026.97;10453634;28;20087;-77
2022/12/28 10:49:49;;;;;;;2.42;1.40;;;;;;;6.23;90.97;100029.13;10472650;28;20036;-77
2022/12/28 10:55:27;;;;;;;1.65;1.55;;;;;;;6.47;90.50;100016.72;10475544;28;20520;-76
2022/12/28 11:00:31;;;;;;;1.63;1.52;;;;;;;6.27;90.75;100041.28;10474483;28;20040;-76
2022/12/28 11:05:34;;;;;;;1.40;1.30;;;;;;;6.75;88.86;100010.31;10472318;28;20047;-75
2022/12/28 11:10:39;;;;;;;1.52;1.42;;;;;;;6.54;89.48;100012.69;10469439;28;20045;-78
2022/12/28 11:15:43;;;;;;;1.70;1.60;;;;;;;6.56;90.36;100004.59;10476969;28;20050;-76
2022/12/28 11:20:49;;;;;;;2.13;1.95;;;;;;;6.65;90.67;100011.09;10463768;28;20060;-77
2022/12/28 11:25:52;;;;;;;4.65;2.65;;;;;;;6.75;90.87;99982.78;10463683;28;20490;-76
2022/12/28 11:30:57;;;;;;;2.58;2.38;;;;;;;6.58;91.11;99976.81;10480514;28;20127;-77
2022/12/28 11:36:01;;;;;;;3.25;2.38;;;;;;;6.93;88.58;99969.94;10476094;28;20048;-76
2022/12/28 11:41:13;;;;;;;4.53;2.70;;;;;;;6.84;90.71;99979.44;10474293;28;20049;-78
2022/12/28 11:46:42;;;;;;;7.25;2.80;;;;;;;6.92;89.53;99971.75;10472149;28;20129;-76
2022/12/28 11:51:45;;;;;;;3.28;2.95;;;;;;;7.02;89.29;99970.13;10475841;28;20095;-77
2022/12/28 11:56:59;;;;;;;3.35;3.10;;;;;;;6.89;88.83;99955.13;10478647;28;20037;-76
2022/12/28 12:02:23;;;;;;;1.63;1.48;;;;;;;6.90;86.84;99954.16;10477924;28;20048;-76
2022/12/28 12:07:50;;;;;;;2.55;2.38;;;;;;;7.26;84.13;99948.75;10473596;28;20087;-76
2022/12/28 12:12:53;;;;;;;4.30;2.30;;;;;;;7.15;83.52;99953.19;10477081;28;20044;-77
2022/12/28 12:18:02;;;;;;;3.53;1.77;;;;;;;7.38;82.46;99943.50;10460069;28;20033;-76
2022/12/28 12:23:09;;;;;;;4.13;1.90;;;;;;;7.32;81.89;99934.09;10490406;28;20120;-77
2022/12/28 12:28:27;;;;;;;2.78;1.90;;;;;;;7.28;81.96;99941.50;10479091;28;20064;-77
2022/12/28 12:33:35;;;;;;;2.38;1.67;;;;;;;7.69;80.26;99918.81;10478173;28;20120;-77
2022/12/28 12:38:55;;;;;;;2.63;1.58;;;;;;;7.66;79.97;99897.66;10461588;28;20091;-77
2022/12/28 12:44:15;;;;;;;2.60;1.63;;;;;;;7.64;79.44;99914.78;10458627;28;20079;-77
2022/12/28 12:49:44;;;;;;;2.80;1.92;;;;;;;7.79;78.68;99905.59;10472555;28;20128;-78
2022/12/28 12:54:58;;;;;;;1.42;1.33;;;;;;;7.92;78.50;99892.97;10477824;28;20124;-77
2022/12/28 13:00:12;;;;;;;3.22;1.60;;;;;;;7.90;78.61;99880.72;10476710;28;20098;-78
2022/12/28 13:05:20;;;;;;;1.50;1.02;;;;;;;8.03;77.20;99893.97;10482623;28;20572;-77
2022/12/28 13:10:29;;;;;;;1.73;1.13;;;;;;;7.68;77.96;99897.56;10466562;28;20048;-78
2022/12/28 13:15:32;;;;;;;3.67;1.25;;;;;;;8.02;77.38;99881.56;10482569;28;20044;-78
2022/12/28 13:20:37;;;;;;;1.40;1.30;;;;;;;8.21;76.46;99864.91;10474858;28;20052;-76
2022/12/28 13:25:45;;;;;;;1.25;1.15;;;;;;;7.98;77.34;99877.41;10474824;28;20091;-77
2022/12/28 13:30:58;;;;;;;3.05;1.70;;;;;;;7.97;76.78;99871.22;10489232;28;20040;-79
2022/12/28 13:36:17;;;;;;;0.95;0.95;;;;;;;7.72;77.39;99874.97;10481296;28;20076;-78
2022/12/28 13:41:24;;;;;;;1.05;0.82;;;;;;;8.04;76.34;99874.28;10457572;28;20048;-77
2022/12/28 13:46:28;;;;;;;1.73;1.17;;;;;;;7.91;76.95;99866.38;10457135;28;20453;-78
2022/12/28 13:51:36;;;;;;;2.30;1.05;;;;;;;8.03;75.91;99864.53;10493364;28;20412;-78
2022/12/28 13:56:42;;;;;;;1.60;0.95;;;;;;;7.94;75.59;99860.75;10498131;28;20064;-78
2022/12/28 14:01:49;;;;;;;2.63;1.10;;;;;;;8.14;75.09;99845.81;10479268;28;20075;-77
2022/12/28 14:06:54;;;;;;;2.25;1.30;;;;;;;8.06;75.15;99856.28;10492875;28;20052;-78
2022/12/28 14:11:57;;;;;;;1.70;0.73;;;;;;;8.04;74.50;99880.47;10483336;28;20071;-78
2022/12/28 14:17:01;;;;;;;1.00;0.90;;;;;;;8.49;73.40;99856.41;10498085;28;20044;-78
2022/12/28 14:22:25;;;;;;;1.25;0.90;;;;;;;7.97;74.95;99865.03;10466938;28;20045;-76
2022/12/28 14:27:28;;;;;;;2.70;1.10;;;;;;;7.60;77.10;99850.03;10456116;28;20094;-78
2022/12/28 14:32:31;;;;;;;1.63;0.90;;;;;;;7.45;78.48;99888.59;10455931;28;20127;-77
2022/12/28 14:37:45;;;;;;;3.38;1.30;;;;;;;7.06;79.85;99880.81;10456268;28;20044;-78
2022/12/28 14:42:50;;;;;;;3.22;1.48;;;;;;;6.88;82.14;99879.47;10484795;28;20048;-76
2022/12/28 14:47:56;;;;;;;1.13;1.00;;;;;;;7.10;81.09;99849.38;10475417;28;20052;-77
2022/12/28 14:53:09;;;;;;;2.08;1.00;;;;;;;7.10;80.30;99828.00;10473874;28;20095;-78
2022/12/28 14:58:18;;;;;;;1.52;1.30;;;;;;;7.31;78.69;99836.22;10454060;28;20048;-76
2022/12/28 15:03:22;;;;;;;2.47;1.30;;;;;;;7.10;78.28;99806.63;10435773;28;20474;-77
2022/12/28 15:08:27;;;;;;;2.95;1.05;;;;;;;7.25;77.26;99797.47;10453531;28;20106;-78
2022/12/28 15:13:30;;;;;;;4.10;1.60;;;;;;;7.65;75.29;99798.88;10453472;28;20072;-77
2022/12/28 15:18:32;;;;;;;2.22;1.17;;;;;;;7.82;74.78;99789.53;10453389;28;20103;-77
2022/12/28 15:23:37;;;;;;;3.38;0.95;;;;;;;7.59;75.67;99792.19;10453046;28;20045;-78
2022/12/28 15:28:40;;;;;;;3.95;1.30;;;;;;;7.48;74.70;99785.00;10461931;28;20068;-78
2022/12/28 15:33:43;;;;;;;2.42;1.13;;;;;;;7.50;72.83;99774.19;10466989;28;20551;-77
2022/12/28 15:38:48;;;;;;;2.05;0.85;;;;;;;7.55;72.47;99769.34;10467488;28;20165;-79
2022/12/28 15:43:51;;;;;;;1.95;0.75;;;;;;;7.76;71.19;99744.56;10467662;28;20079;-78
2022/12/28 15:48:54;;;;;;;4.35;1.98;;;;;;;7.74;70.78;99750.03;10467746;28;20045;-80
2022/12/28 15:53:58;;;;;;;1.98;1.35;;;;;;;7.82;69.87;99747.63;10467733;28;20363;-79
2022/12/28 15:59:03;;;;;;;1.85;0.75;;;;;;;7.56;70.29;99752.31;10467794;28;20092;-80
2022/12/28 16:04:06;;;;;;;1.30;0.80;;;;;;;7.77;69.19;99746.28;10496001;22;20105;-79
2022/12/28 16:09:10;;;;;;;1.10;1.00;;;;;;;7.71;69.15;99743.13;10500882;28;20048;-78
2022/12/28 16:14:16;;;;;;;5.60;1.23;;;;;;;7.81;68.93;99729.00;10495119;28;20045;-81
2022/12/28 16:19:19;;;;;;;7.25;2.67;;;;;;;7.78;68.88;99723.91;10487266;28;20055;-81
2022/12/28 16:24:23;;;;;;;2.83;1.35;;;;;;;7.95;68.15;99708.22;10506931;28;20361;-81
2022/12/28 16:29:26;;;;;;;4.75;2.03;;;;;;;7.93;67.96;99720.00;10493566;28;20063;-81
2022/12/28 16:34:30;;;;;;;5.22;1.85;;;;;;;7.77;68.14;99695.47;10508610;28;20037;-80
2022/12/28 16:39:36;;;;;;;4.70;1.77;;;;;;;7.68;68.18;99686.38;10492052;28;20048;-80
2022/12/28 16:44:39;;;;;;;7.25;2.45;;;;;;;7.86;67.96;99692.06;10487848;28;20665;-81
2022/12/28 16:49:42;;;;;;;8.38;2.50;;;;;;;7.91;67.58;99682.69;10474489;28;20044;-80
2022/12/28 16:54:46;;;;;;;3.25;1.38;;;;;;;7.89;67.71;99663.22;10489263;28;20107;-81
2022/12/28 16:59:49;;;;;;;4.55;2.17;;;;;;;7.92;67.51;99662.97;10470542;28;20053;-79
2022/12/28 17:04:52;;;;;;;6.45;1.80;;;;;;;7.84;68.10;99630.66;10494455;28;20578;-81
2022/12/28 17:09:56;;;;;;;5.60;2.22;;;;;;;7.81;67.57;99648.78;10493010;28;20048;-81
2022/12/28 17:14:59;;;;;;;3.42;1.77;;;;;;;7.81;67.76;99638.94;10476554;28;20037;-81
2022/12/28 17:20:07;;;;;;;4.95;1.88;;;;;;;7.84;67.82;99641.34;10486706;28;20037;-81
2022/12/28 17:25:13;;;;;;;4.07;1.27;;;;;;;7.71;67.70;99625.50;10468250;28;20099;-81
2022/12/28 17:30:16;;;;;;;2.15;1.30;;;;;;;7.81;67.36;99616.72;10495480;28;20137;-80
2022/12/28 17:35:19;;;;;;;2.45;1.23;;;;;;;7.83;67.13;99610.25;10506663;28;20040;-80
2022/12/28 17:40:23;;;;;;;2.38;1.42;;;;;;;7.82;67.26;99607.72;10486361;28;20409;-79
2022/12/28 17:45:26;;;;;;;4.18;2.15;;;;;;;7.76;67.09;99593.00;10468683;28;20486;-79
2022/12/28 17:50:29;;;;;;;3.95;1.73;;;;;;;8.03;66.54;99597.06;10462576;28;20052;-79
2022/12/28 17:55:35;;;;;;;4.20;2.03;;;;;;;8.01;66.78;99575.81;10476259;28;20040;-79
2022/12/28 18:00:38;;;;;;;3.17;1.80;;;;;;;8.00;66.31;99560.72;10482103;28;20037;-81
2022/12/28 18:05:41;;;;;;;3.30;1.30;;;;;;;7.94;66.76;99550.56;10477461;28;20113;-79
2022/12/28 18:10:46;;;;;;;7.75;1.98;;;;;;;8.06;66.18;99554.84;10450813;28;20072;-79
2022/12/28 18:15:49;;;;;;;6.60;2.55;;;;;;;8.05;66.16;99558.53;10473551;28;20540;-80
2022/12/28 18:20:59;;;;;;;2.92;1.77;;;;;;;8.07;65.57;99531.66;10483537;28;20095;-80
2022/12/28 18:26:06;;;;;;;2.58;1.67;;;;;;;8.25;65.51;99527.41;10463303;28;20048;-80
2022/12/28 18:31:09;;;;;;;2.05;1.45;;;;;;;8.29;65.78;99515.47;10486059;28;20057;-80
2022/12/28 18:36:13;;;;;;;2.88;1.42;;;;;;;8.09;66.19;99519.84;10490230;28;20099;-80
2022/12/28 18:41:21;;;;;;;2.92;1.40;;;;;;;8.20;66.61;99516.28;10486484;28;20094;-80
2022/12/28 18:46:24;;;;;;;2.90;1.23;;;;;;;7.97;68.31;99512.84;10466076;28;20127;-80
2022/12/28 18:51:27;;;;;;;1.50;1.20;;;;;;;7.62;70.79;99521.13;10445689;28;20470;-79
2022/12/28 18:56:31;;;;;;;1.10;0.90;;;;;;;7.37;72.60;99511.59;10447041;28;20045;-79
2022/12/28 19:01:38;;;;;;;1.95;1.42;;;;;;;7.34;74.04;99504.69;10471814;28;20040;-80
2022/12/28 19:07:01;;;;;;;3.10;1.15;;;;;;;7.32;74.61;99501.28;10473874;28;20056;-80
2022/12/28 19:12:05;;;;;;;1.92;1.13;;;;;;;7.10;75.85;99502.19;10440461;28;20076;-81
2022/12/28 19:17:08;;;;;;;4.88;1.10;;;;;;;7.05;77.14;99489.22;10453808;28;20052;-81
2022/12/28 19:22:11;;;;;;;3.30;1.23;;;;;;;6.61;79.31;99485.56;10491082;28;20040;-81
2022/12/28 19:27:15;;;;;;;4.05;1.17;;;;;;;6.89;78.46;99450.53;10455879;28;20042;-80
2022/12/28 19:32:18;;;;;;;1.45;0.98;;;;;;;6.61;80.15;99452.69;10470564;28;20556;-82
2022/12/28 19:37:21;;;;;;;1.05;0.90;;;;;;;6.72;80.27;99459.81;10491678;28;20469;-82
2022/12/28 19:42:25;;;;;;;2.15;1.35;;;;;;;6.75;81.54;99435.59;10475375;28;20053;-82
2022/12/28 19:47:28;;;;;;;4.13;1.60;;;;;;;6.44;82.34;99431.81;10477089;28;20045;-82
2022/12/28 19:52:32;;;;;;;1.75;1.40;;;;;;;6.69;81.84;99418.25;10496827;28;20493;-80
2022/12/28 19:57:38;;;;;;;1.70;1.10;;;;;;;6.73;82.24;99414.34;10424345;28;20042;-80
2022/12/28 20:02:41;;;;;;;5.43;1.50;;;;;;;6.53;83.28;99391.09;10462738;28;20053;-80
2022/12/28 20:07:43;;;;;;;2.08;1.30;;;;;;;6.71;83.76;99391.41;10473282;28;20048;-81
2022/12/28 20:12:48;;;;;;;1.83;1.27;;;;;;;6.51;84.00;99372.53;10458032;28;20493;-83
2022/12/28 20:17:51;;;;;;;3.97;1.20;;;;;;;6.51;85.36;99369.00;10467556;28;20048;-82
2022/12/28 20:22:54;;;;;;;2.22;1.17;;;;;;;6.58;84.89;99365.75;10487235;28;20040;-80
2022/12/28 20:27:58;;;;;;;1.58;1.23;;;;;;;6.46;86.03;99357.88;10474551;28;20049;-82
2022/12/28 20:33:01;;;;;;;1.05;0.93;;;;;;;6.32;87.03;99377.63;10490362;28;20469;-80
2022/12/28 20:38:04;;;;;;;2.00;1.23;;;;;;;6.56;87.09;99350.81;10463321;28;20049;-80
2022/12/28 20:43:24;;;;;;;1.23;1.15;;;;;;;6.34;88.19;99341.88;10477382;28;20045;-81
2022/12/28 20:48:27;;;;;;;2.03;1.02;;;;;;;6.32;88.73;99354.47;10417725;28;20060;-82
2022/12/28 20:53:30;;;;;;;1.33;1.23;;;;;;;6.58;88.64;99335.50;10457352;28;20115;-81
2022/12/28 20:58:35;;;;;;;2.58;1.50;;;;;;;6.69;88.45;99330.19;10486285;28;20045;-81
2022/12/28 21:03:38;;;;;;;1.02;0.93;;;;;;;6.61;88.17;99335.28;10474749;28;20053;-82
2022/12/28 21:08:41;;;;;;;1.58;1.30;;;;;;;6.52;88.56;99307.50;10464757;28;20044;-82
2022/12/28 21:13:45;;;;;;;1.50;1.40;;;;;;;6.75;88.46;99308.31;10482418;28;20044;-82
2022/12/28 21:18:49;;;;;;;1.58;1.20;;;;;;;6.67;100.00;99305.44;10494400;28;20154;-83
2022/12/28 21:23:52;;;;;;;1.85;1.38;;;;;;;6.54;100.00;99304.72;10467744;28;20103;-83
2022/12/28 21:28:56;;;;;;;2.85;1.80;;;;;;;6.84;100.00;99304.88;10475685;28;20065;-81
2022/12/28 21:33:59;;;;;;;1.48;1.05;;;;;;;6.66;100.00;99282.38;10461054;28;20045;-81
2022/12/28 21:39:02;;;;;;;1.92;0.82;;;;;;;7.00;89.07;99292.97;10454205;28;20037;-82
2022/12/28 21:44:07;;;;;;;1.73;1.30;;;;;;;7.40;85.83;99294.94;10445316;28;20387;-81
2022/12/28 21:49:10;;;;;;;1.48;1.30;;;;;;;7.36;85.04;99280.16;10450794;28;20407;-82
2022/12/28 21:54:15;;;;;;;1.63;1.20;;;;;;;7.23;85.80;99275.00;10485231;28;20472;-81
2022/12/28 21:59:21;;;;;;;1.83;1.42;;;;;;;7.43;84.31;99284.00;10467638;28;20049;-82
2022/12/28 22:20:33;;;;;;;1.58;1.08;;;;;;;7.82;81.36;99252.16;10517576;28;20063;-79
2022/12/28 22:25:36;;;;;;;2.72;1.10;;;;;;;8.00;81.02;99255.00;10485932;28;20053;-80
2022/12/28 22:30:41;;;;;;;1.10;0.93;;;;;;;7.74;81.61;99263.50;10482708;22;20067;-79
2022/12/28 22:35:44;;;;;;;1.10;1.00;;;;;;;7.90;80.84;99226.44;10476189;28;20080;-80
2022/12/28 22:40:56;;;;;;;1.45;1.02;;;;;;;8.13;80.15;99223.53;10485749;28;20060;-78
2022/12/28 22:46:06;;;;;;;2.13;0.90;;;;;;;8.01;80.07;99213.91;10471361;28;20045;-78
2022/12/28 22:51:10;;;;;;;1.48;1.10;;;;;;;8.42;78.45;99217.38;10473762;28;20057;-78
2022/12/28 22:56:18;;;;;;;0.90;0.90;;;;;;;8.10;79.08;99247.88;10474420;28;20032;-80
2022/12/28 23:01:22;;;;;;;2.28;1.40;;;;;;;8.50;77.63;99204.19;10454863;28;20044;-80
2022/12/28 23:06:26;;;;;;;1.20;1.10;;;;;;;8.38;78.21;99217.66;10496804;28;20041;-79
2022/12/28 23:11:38;;;;;;;1.27;1.15;;;;;;;8.42;77.48;99215.56;10477000;28;20048;-79
2022/12/28 23:16:42;;;;;;;3.08;0.95;;;;;;;8.19;78.10;99231.00;10478704;28;20060;-80
2022/12/28 23:27:21;;;;;;;1.10;0.75;;;;;;;8.38;77.17;99217.66;10469160;28;20037;-80
2022/12/28 23:32:25;;;;;;;1.75;0.98;;;;;;;8.75;76.00;99195.59;10513212;28;20033;-77
2022/12/28 23:37:28;;;;;;;1.85;0.90;;;;;;;8.53;76.67;99210.13;10496936;28;20062;-79
2022/12/28 23:42:31;;;;;;;1.42;0.93;;;;;;;8.66;76.52;99196.44;10470815;28;20041;-80
2022/12/28 23:47:36;;;;;;;1.35;0.90;;;;;;;8.59;76.12;99182.78;10500600;28;20056;-79
2022/12/28 23:52:39;;;;;;;1.20;1.00;;;;;;;8.70;76.13;99189.81;10487634;28;20041;-79
2022/12/28 23:57:42;;;;;;;1.52;0.95;;;;;;;8.71;76.14;99186.16;10480994;28;20045;-78
